createdAt,value
2019-05-22T00:00:59.342Z,27.47
2019-05-22T00:03:37.788Z,27.80
2019-05-22T00:06:09.816Z,26.20
2019-05-22T00:08:41.649Z,28.40
2019-05-22T00:11:13.479Z,28.80
2019-05-22T00:13:45.553Z,31.87
2019-05-22T00:16:17.352Z,30.33
2019-05-22T00:18:52.730Z,34.37
2019-05-22T00:21:25.156Z,31.67
2019-05-22T00:23:55.562Z,33.33
2019-05-22T00:26:28.524Z,32.90
2019-05-22T00:29:01.947Z,31.70
2019-05-22T00:31:32.315Z,34.10
2019-05-22T00:34:03.596Z,36.27
2019-05-22T00:36:33.947Z,32.43
2019-05-22T00:39:05.394Z,32.33
2019-05-22T00:41:35.828Z,38.30
2019-05-22T00:44:08.296Z,34.17
2019-05-22T00:46:40.220Z,35.17
2019-05-22T00:49:13.468Z,33.83
2019-05-22T00:52:03.104Z,33.13
2019-05-22T00:54:47.066Z,35.27
2019-05-22T00:57:35.104Z,35.37
2019-05-22T01:00:21.931Z,35.43
2019-05-22T01:02:54.363Z,34.90
2019-05-22T01:05:28.000Z,39.17
2019-05-22T01:07:58.311Z,41.77
2019-05-22T01:10:30.372Z,34.87
2019-05-22T01:13:03.379Z,34.87
2019-05-22T01:15:35.346Z,37.93
2019-05-22T01:18:10.327Z,37.90
2019-05-22T01:20:42.453Z,38.37
2019-05-22T01:23:18.155Z,33.33
2019-05-22T01:25:49.055Z,40.30
2019-05-22T01:28:24.165Z,35.70
2019-05-22T01:31:28.755Z,38.27
2019-05-22T01:34:19.253Z,36.67
2019-05-22T01:36:59.971Z,34.23
2019-05-22T01:39:49.363Z,38.57
2019-05-22T01:42:25.786Z,37.17
2019-05-22T01:45:05.982Z,38.63
2019-05-22T01:48:06.827Z,42.07
2019-05-22T01:50:57.050Z,38.67
2019-05-22T01:53:37.612Z,37.73
2019-05-22T01:56:11.535Z,38.57
2019-05-22T01:58:43.695Z,28.93
2019-05-22T02:01:18.648Z,31.60
2019-05-22T02:03:51.039Z,29.53
2019-05-22T02:06:23.674Z,30.57
2019-05-22T02:09:28.702Z,32.00
2019-05-22T02:12:07.516Z,33.60
2019-05-22T02:14:41.606Z,31.53
2019-05-22T02:17:12.364Z,31.30
2019-05-22T02:19:43.524Z,31.63
2019-05-22T02:22:15.256Z,26.87
2019-05-22T02:24:48.839Z,28.33
2019-05-22T02:27:21.260Z,32.80
2019-05-22T02:29:55.464Z,32.90
2019-05-22T02:32:28.677Z,30.87
2019-05-22T02:35:00.676Z,33.57
2019-05-22T02:37:34.662Z,27.80
2019-05-22T02:40:09.737Z,32.83
2019-05-22T02:42:40.710Z,31.60
2019-05-22T02:45:11.539Z,26.97
2019-05-22T02:47:43.696Z,32.57
2019-05-22T02:50:14.910Z,29.47
2019-05-22T02:52:45.646Z,33.93
2019-05-22T02:55:17.690Z,38.30
2019-05-22T02:57:48.411Z,35.20
2019-05-22T03:00:19.935Z,31.13
2019-05-22T03:02:53.524Z,35.03
2019-05-22T03:05:25.350Z,30.70
2019-05-22T03:07:57.652Z,30.10
2019-05-22T03:10:29.353Z,32.33
2019-05-22T03:13:00.024Z,31.10
2019-05-22T03:15:30.537Z,30.90
2019-05-22T03:18:02.660Z,29.83
2019-05-22T03:20:35.928Z,25.33
2019-05-22T03:23:24.150Z,29.07
2019-05-22T03:25:54.867Z,29.87
2019-05-22T03:28:25.980Z,27.77
2019-05-22T03:30:57.461Z,24.47
2019-05-22T03:33:27.745Z,29.53
2019-05-22T03:36:10.722Z,27.97
2019-05-22T03:38:42.512Z,27.67
2019-05-22T03:41:14.866Z,24.33
2019-05-22T03:43:48.572Z,25.80
2019-05-22T03:46:44.578Z,30.20
2019-05-22T03:49:29.958Z,25.47
2019-05-22T03:51:52.529Z,25.37
2019-05-22T03:54:24.709Z,27.97
2019-05-22T03:56:58.567Z,22.90
2019-05-22T03:59:30.335Z,26.00
2019-05-22T04:02:00.926Z,25.60
2019-05-22T04:04:39.416Z,26.67
2019-05-22T04:07:15.806Z,24.93
2019-05-22T04:09:48.719Z,24.17
2019-05-22T04:12:21.589Z,25.20
2019-05-22T04:14:52.978Z,29.80
2019-05-22T04:17:25.192Z,22.43
2019-05-22T04:19:57.382Z,20.63
2019-05-22T04:22:30.854Z,23.40
2019-05-22T04:25:01.992Z,21.30
2019-05-22T04:27:33.503Z,22.67
2019-05-22T04:30:06.492Z,22.90
2019-05-22T04:32:39.805Z,20.90
2019-05-22T04:35:12.985Z,21.03
2019-05-22T04:37:45.723Z,22.47
2019-05-22T04:40:58.563Z,20.50
2019-05-22T04:43:32.672Z,20.80
2019-05-22T04:46:06.796Z,19.60
2019-05-22T04:48:38.371Z,25.00
2019-05-22T04:51:26.567Z,23.63
2019-05-22T04:53:59.082Z,21.50
2019-05-22T04:56:30.857Z,20.33
2019-05-22T04:59:02.914Z,24.53
2019-05-22T05:01:34.997Z,25.60
2019-05-22T05:04:06.851Z,29.03
2019-05-22T05:06:40.877Z,26.73
2019-05-22T05:09:13.746Z,24.87
2019-05-22T05:11:45.220Z,29.80
2019-05-22T05:14:16.061Z,26.13
2019-05-22T05:16:49.303Z,24.43
2019-05-22T05:19:20.523Z,25.80
2019-05-22T05:21:51.486Z,26.50
2019-05-22T05:24:23.997Z,23.83
2019-05-22T05:26:55.119Z,25.13
2019-05-22T05:29:33.473Z,26.33
2019-05-22T05:32:06.216Z,24.40
2019-05-22T05:35:02.235Z,25.33
2019-05-22T05:37:33.844Z,27.40
2019-05-22T05:40:42.416Z,23.60
2019-05-22T05:43:15.649Z,23.50
2019-05-22T05:45:49.755Z,26.60
2019-05-22T05:48:26.115Z,26.00
2019-05-22T05:51:28.611Z,23.40
2019-05-22T05:54:18.005Z,26.67
2019-05-22T05:56:49.874Z,22.70
2019-05-22T05:59:21.855Z,24.43
2019-05-22T06:02:00.608Z,24.40
2019-05-22T06:04:38.029Z,25.13
2019-05-22T06:07:22.932Z,21.17
2019-05-22T06:10:41.069Z,23.20
2019-05-22T06:13:13.100Z,21.40
2019-05-22T06:16:31.153Z,21.63
2019-05-22T06:19:02.914Z,21.83
2019-05-22T06:21:33.999Z,22.70
2019-05-22T06:24:28.260Z,20.63
2019-05-22T06:27:11.113Z,22.53
2019-05-22T06:29:53.263Z,23.13
2019-05-22T06:33:02.575Z,23.63
2019-05-22T06:35:36.289Z,21.87
2019-05-22T06:38:42.787Z,21.77
2019-05-22T06:41:14.382Z,22.37
2019-05-22T06:44:27.108Z,21.93
2019-05-22T06:46:58.313Z,17.67
2019-05-22T06:50:01.001Z,19.33
2019-05-22T06:52:31.995Z,19.60
2019-05-22T06:55:04.497Z,19.10
2019-05-22T06:57:36.059Z,21.23
2019-05-22T07:00:14.630Z,18.93
2019-05-22T07:02:45.978Z,21.30
2019-05-22T07:05:16.912Z,21.80
2019-05-22T07:07:48.927Z,20.77
2019-05-22T07:10:20.986Z,19.53
2019-05-22T07:12:51.935Z,20.97
2019-05-22T07:15:34.168Z,22.70
2019-05-22T07:18:07.629Z,20.10
2019-05-22T07:20:40.064Z,22.53
2019-05-22T07:23:15.139Z,25.33
2019-05-22T07:25:47.338Z,23.20
2019-05-22T07:28:19.702Z,23.27
2019-05-22T07:30:52.390Z,19.47
2019-05-22T07:33:25.147Z,22.53
2019-05-22T07:36:17.030Z,20.77
2019-05-22T07:38:32.652Z,23.60
2019-05-22T07:41:04.024Z,22.60
2019-05-22T07:43:41.189Z,22.17
2019-05-22T07:46:11.800Z,22.67
2019-05-22T07:48:42.596Z,24.73
2019-05-22T07:51:16.393Z,25.87
2019-05-22T07:53:46.199Z,22.33
2019-05-22T07:56:17.912Z,23.50
2019-05-22T07:58:49.159Z,25.23
2019-05-22T08:01:20.628Z,22.57
2019-05-22T08:03:56.570Z,22.53
2019-05-22T08:06:27.233Z,27.93
2019-05-22T08:09:00.175Z,27.03
2019-05-22T08:11:30.900Z,28.53
2019-05-22T08:14:02.365Z,25.67
2019-05-22T08:16:35.058Z,21.07
2019-05-22T08:19:06.038Z,23.70
2019-05-22T08:21:38.990Z,24.67
2019-05-22T08:24:10.419Z,22.60
2019-05-22T08:26:53.872Z,26.73
2019-05-22T08:29:16.299Z,25.37
2019-05-22T08:31:48.528Z,22.37
2019-05-22T08:34:20.435Z,21.37
2019-05-22T08:36:51.030Z,22.27
2019-05-22T08:39:23.445Z,21.67
2019-05-22T08:41:58.309Z,19.70
2019-05-22T08:44:29.675Z,21.43
2019-05-22T08:47:00.988Z,21.70
2019-05-22T08:49:32.520Z,17.43
2019-05-22T08:52:04.890Z,17.17
2019-05-22T08:54:36.200Z,18.97
2019-05-22T08:57:09.945Z,16.40
2019-05-22T08:59:40.638Z,18.07
2019-05-22T09:02:12.135Z,20.87
2019-05-22T09:04:43.223Z,16.27
2019-05-22T09:07:13.883Z,19.33
2019-05-22T09:09:44.329Z,16.67
2019-05-22T09:12:16.658Z,16.70
2019-05-22T09:14:49.057Z,16.00
2019-05-22T09:17:21.455Z,17.10
2019-05-22T09:19:53.001Z,17.17
2019-05-22T09:22:39.135Z,16.20
2019-05-22T09:24:56.702Z,17.43
2019-05-22T09:27:27.806Z,15.97
2019-05-22T09:29:58.572Z,18.00
2019-05-22T09:32:29.328Z,15.10
2019-05-22T09:34:59.772Z,15.33
2019-05-22T09:37:30.812Z,15.63
2019-05-22T09:40:02.238Z,12.90
2019-05-22T09:42:34.389Z,14.70
2019-05-22T09:45:05.967Z,14.30
2019-05-22T09:47:38.692Z,13.17
2019-05-22T09:50:14.799Z,15.63
2019-05-22T09:52:57.072Z,14.70
2019-05-22T09:55:21.181Z,13.03
2019-05-22T09:57:58.923Z,11.80
2019-05-22T10:00:33.636Z,10.87
2019-05-22T10:03:03.207Z,14.23
2019-05-22T10:05:34.224Z,10.40
2019-05-22T10:08:06.243Z,10.63
2019-05-22T10:10:38.473Z,11.13
2019-05-22T10:13:09.993Z,11.17
2019-05-22T10:15:40.880Z,11.93
2019-05-22T10:18:12.193Z,9.87
2019-05-22T10:20:43.557Z,12.93
2019-05-22T10:23:16.424Z,13.77
2019-05-22T10:25:49.514Z,13.73
2019-05-22T10:28:20.166Z,10.53
2019-05-22T10:30:51.575Z,10.30
2019-05-22T10:33:22.297Z,12.33
2019-05-22T10:35:56.185Z,14.07
2019-05-22T10:38:26.814Z,14.10
2019-05-22T10:40:59.360Z,11.67
2019-05-22T10:43:30.470Z,14.20
2019-05-22T10:46:01.062Z,9.80
2019-05-22T10:48:31.738Z,12.07
2019-05-22T10:51:02.198Z,14.07
2019-05-22T10:53:34.279Z,9.97
2019-05-22T10:56:06.005Z,11.17
2019-05-22T10:58:38.606Z,9.03
2019-05-22T11:01:11.568Z,11.00
2019-05-22T11:03:43.926Z,10.47
2019-05-22T11:06:17.130Z,8.83
2019-05-22T11:08:50.329Z,10.87
2019-05-22T11:11:21.869Z,8.13
2019-05-22T11:14:01.414Z,11.03
2019-05-22T11:16:25.992Z,12.30
2019-05-22T11:18:57.769Z,10.00
2019-05-22T11:21:29.341Z,9.10
2019-05-22T11:24:00.553Z,8.80
2019-05-22T11:26:32.465Z,10.13
2019-05-22T11:29:03.735Z,12.93
2019-05-22T11:31:35.752Z,9.13
2019-05-22T11:34:06.781Z,10.57
2019-05-22T11:36:38.638Z,9.97
2019-05-22T11:39:14.241Z,9.10
2019-05-22T11:41:45.216Z,9.97
2019-05-22T11:44:15.835Z,11.60
2019-05-22T11:46:47.623Z,11.53
2019-05-22T11:49:19.615Z,11.63
2019-05-22T11:51:50.281Z,8.90
2019-05-22T11:54:20.973Z,9.87
2019-05-22T11:56:52.152Z,8.13
2019-05-22T11:59:24.086Z,9.17
2019-05-22T12:01:55.342Z,8.70
2019-05-22T12:04:26.347Z,8.33
2019-05-22T12:07:01.265Z,10.33
2019-05-22T12:09:32.593Z,10.13
2019-05-22T12:12:03.540Z,10.40
2019-05-22T12:14:35.620Z,9.60
2019-05-22T12:17:07.013Z,8.47
2019-05-22T12:19:37.807Z,9.33
2019-05-22T12:22:09.147Z,9.23
2019-05-22T12:24:39.776Z,9.70
2019-05-22T12:27:11.611Z,11.57
2019-05-22T12:29:44.136Z,13.87
2019-05-22T12:32:15.139Z,11.60
2019-05-22T12:34:46.119Z,13.63
2019-05-22T12:37:17.342Z,13.07
2019-05-22T12:39:48.803Z,14.43
2019-05-22T12:42:19.440Z,11.27
2019-05-22T12:44:52.881Z,11.90
2019-05-22T12:47:29.433Z,15.87
2019-05-22T12:50:00.821Z,10.93
2019-05-22T12:52:31.577Z,11.87
2019-05-22T12:55:03.173Z,10.40
2019-05-22T12:57:34.379Z,11.00
2019-05-22T13:00:06.192Z,11.40
2019-05-22T13:02:42.241Z,12.33
2019-05-22T13:05:14.497Z,12.07
2019-05-22T13:07:44.794Z,10.57
2019-05-22T13:10:17.274Z,13.37
2019-05-22T13:12:48.494Z,9.80
2019-05-22T13:15:27.489Z,12.47
2019-05-22T13:17:59.970Z,11.13
2019-05-22T13:20:42.399Z,10.30
2019-05-22T13:23:09.921Z,11.53
2019-05-22T13:25:43.325Z,9.77
2019-05-22T13:28:17.091Z,10.50
2019-05-22T13:30:51.287Z,10.00
2019-05-22T13:33:28.738Z,11.70
2019-05-22T13:36:00.604Z,8.13
2019-05-22T13:38:31.245Z,8.30
2019-05-22T13:41:04.426Z,11.13
2019-05-22T13:43:36.176Z,8.57
2019-05-22T13:46:07.308Z,9.20
2019-05-22T13:48:37.901Z,10.17
2019-05-22T13:51:11.286Z,8.87
2019-05-22T13:53:43.382Z,9.43
2019-05-22T13:56:15.337Z,9.83
2019-05-22T13:58:47.140Z,8.57
2019-05-22T14:01:18.792Z,8.17
2019-05-22T14:03:49.547Z,8.20
2019-05-22T14:06:20.418Z,9.13
2019-05-22T14:08:51.840Z,7.97
2019-05-22T14:11:28.915Z,7.33
2019-05-22T14:14:00.007Z,6.87
2019-05-22T14:16:30.817Z,9.27
2019-05-22T14:19:01.540Z,6.40
2019-05-22T14:21:34.797Z,6.53
2019-05-22T14:24:05.852Z,8.93
2019-05-22T14:26:36.494Z,6.63
2019-05-22T14:29:09.644Z,7.53
2019-05-22T14:31:41.182Z,6.57
2019-05-22T14:34:13.650Z,6.23
2019-05-22T14:36:44.728Z,5.57
2019-05-22T14:39:16.223Z,8.03
2019-05-22T14:41:47.025Z,7.40
2019-05-22T14:44:17.844Z,6.20
2019-05-22T14:46:48.620Z,5.60
2019-05-22T14:49:20.893Z,6.50
2019-05-22T14:51:52.109Z,6.53
2019-05-22T14:54:24.364Z,5.83
2019-05-22T14:56:56.042Z,6.77
2019-05-22T14:59:27.538Z,6.87
2019-05-22T15:01:58.379Z,6.70
2019-05-22T15:04:30.417Z,8.73
2019-05-22T15:07:01.270Z,8.13
2019-05-22T15:09:32.179Z,5.50
2019-05-22T15:12:02.875Z,5.37
2019-05-22T15:14:33.595Z,6.63
2019-05-22T15:17:04.773Z,4.17
2019-05-22T15:19:37.884Z,5.53
2019-05-22T15:22:09.319Z,4.90
2019-05-22T15:24:40.727Z,6.03
2019-05-22T15:27:14.517Z,4.77
2019-05-22T15:29:46.431Z,4.67
2019-05-22T15:32:20.742Z,4.57
2019-05-22T15:34:51.999Z,4.63
2019-05-22T15:37:25.447Z,6.23
2019-05-22T15:39:56.596Z,5.80
2019-05-22T15:42:40.311Z,5.83
2019-05-22T15:45:19.468Z,4.13
2019-05-22T15:47:56.321Z,5.27
2019-05-22T15:50:29.008Z,5.17
2019-05-22T15:53:05.488Z,4.23
2019-05-22T15:55:36.846Z,4.53
2019-05-22T15:58:08.908Z,5.73
2019-05-22T16:00:41.199Z,5.00
2019-05-22T16:03:15.519Z,4.67
2019-05-22T16:05:47.864Z,6.20
2019-05-22T16:08:19.397Z,5.90
2019-05-22T16:10:52.365Z,4.00
2019-05-22T16:13:26.910Z,4.70
2019-05-22T16:15:59.990Z,5.07
2019-05-22T16:18:34.835Z,3.50
2019-05-22T16:21:08.232Z,6.30
2019-05-22T16:23:40.398Z,4.57
2019-05-22T16:26:13.346Z,2.77
2019-05-22T16:28:47.775Z,3.43
2019-05-22T16:31:20.811Z,3.50
2019-05-22T16:33:53.122Z,2.47
2019-05-22T16:36:25.076Z,3.47
2019-05-22T16:38:56.887Z,5.10
2019-05-22T16:41:28.249Z,2.70
2019-05-22T16:43:59.898Z,2.97
2019-05-22T16:46:31.404Z,3.13
2019-05-22T16:49:03.772Z,2.80
2019-05-22T16:51:34.857Z,3.20
2019-05-22T16:54:08.409Z,2.60
2019-05-22T16:56:41.143Z,3.47
2019-05-22T16:59:14.420Z,2.60
2019-05-22T17:01:58.674Z,5.20
2019-05-22T17:04:18.792Z,3.77
2019-05-22T17:06:49.632Z,3.63
2019-05-22T17:09:24.771Z,2.53
2019-05-22T17:11:56.858Z,3.30
2019-05-22T17:14:29.846Z,3.37
2019-05-22T17:17:00.721Z,2.50
2019-05-22T17:19:33.420Z,2.10
2019-05-22T17:22:06.548Z,3.87
2019-05-22T17:24:37.996Z,3.83
2019-05-22T17:27:10.804Z,4.07
2019-05-22T17:29:44.167Z,4.50
2019-05-22T17:32:16.094Z,5.10
2019-05-22T17:34:47.442Z,2.77
2019-05-22T17:37:21.411Z,3.23
2019-05-22T17:39:53.043Z,2.50
2019-05-22T17:42:27.434Z,3.67
2019-05-22T17:44:58.814Z,5.30
2019-05-22T17:47:30.956Z,2.70
2019-05-22T17:50:06.244Z,2.10
2019-05-22T17:52:38.129Z,2.50
2019-05-22T17:55:10.589Z,2.47
2019-05-22T17:57:41.903Z,3.07
2019-05-22T18:00:22.572Z,2.93
2019-05-22T18:02:53.741Z,2.83
2019-05-22T18:05:25.089Z,2.63
2019-05-22T18:07:56.395Z,3.33
2019-05-22T18:10:27.435Z,3.83
2019-05-22T18:12:58.504Z,2.87
2019-05-22T18:15:29.456Z,4.77
2019-05-22T18:18:00.949Z,2.97
2019-05-22T18:20:42.292Z,4.20
2019-05-22T18:23:05.611Z,2.83
2019-05-22T18:25:37.429Z,4.10
2019-05-22T18:28:10.424Z,4.77
2019-05-22T18:30:44.316Z,3.60
2019-05-22T18:33:16.261Z,3.83
2019-05-22T18:35:47.592Z,3.83
2019-05-22T18:38:18.227Z,4.27
2019-05-22T18:40:51.480Z,5.67
2019-05-22T18:43:26.040Z,5.53
2019-05-22T18:46:00.520Z,3.10
2019-05-22T18:48:33.250Z,4.23
2019-05-22T18:51:06.464Z,4.37
2019-05-22T18:53:37.419Z,4.80
2019-05-22T18:56:10.923Z,8.43
2019-05-22T18:58:41.928Z,5.57
2019-05-22T19:01:12.587Z,3.87
2019-05-22T19:03:43.525Z,4.93
2019-05-22T19:06:14.312Z,5.17
2019-05-22T19:08:46.683Z,5.23
2019-05-22T19:11:17.231Z,3.70
2019-05-22T19:13:47.873Z,3.00
2019-05-22T19:16:18.379Z,3.20
2019-05-22T19:18:51.441Z,4.97
2019-05-22T19:21:22.593Z,4.60
2019-05-22T19:23:53.070Z,3.90
2019-05-22T19:26:24.411Z,4.50
2019-05-22T19:28:55.468Z,4.33
2019-05-22T19:31:26.268Z,4.43
2019-05-22T19:33:56.649Z,2.70
2019-05-22T19:36:27.846Z,3.63
2019-05-22T19:38:58.477Z,5.10
2019-05-22T19:41:29.277Z,5.17
2019-05-22T19:43:59.526Z,3.33
2019-05-22T19:46:30.873Z,5.30
2019-05-22T19:49:01.858Z,4.87
2019-05-22T19:51:32.916Z,3.50
2019-05-22T19:54:03.748Z,4.77
2019-05-22T19:56:34.350Z,4.77
2019-05-22T19:59:05.910Z,3.73
2019-05-22T20:01:36.303Z,4.30
2019-05-22T20:04:06.915Z,4.70
2019-05-22T20:06:38.526Z,4.40
2019-05-22T20:09:11.816Z,4.97
2019-05-22T20:11:43.238Z,3.57
2019-05-22T20:14:16.728Z,3.80
2019-05-22T20:16:47.157Z,4.00
2019-05-22T20:19:18.426Z,7.10
2019-05-22T20:21:49.593Z,6.43
2019-05-22T20:24:20.609Z,4.00
2019-05-22T20:26:50.941Z,4.53
2019-05-22T20:29:22.406Z,6.00
2019-05-22T20:31:53.371Z,5.63
2019-05-22T20:34:23.908Z,6.37
2019-05-22T20:36:55.248Z,4.43
2019-05-22T20:39:29.304Z,6.43
2019-05-22T20:41:58.134Z,4.73
2019-05-22T20:44:31.297Z,5.30
2019-05-22T20:47:02.652Z,4.73
2019-05-22T20:49:36.401Z,6.97
2019-05-22T20:52:10.721Z,5.27
2019-05-22T20:54:40.930Z,5.43
2019-05-22T20:57:12.958Z,7.17
2019-05-22T20:59:45.932Z,6.33
2019-05-22T21:02:18.726Z,5.97
2019-05-22T21:04:51.507Z,6.03
2019-05-22T21:07:26.759Z,5.27
2019-05-22T21:09:57.665Z,5.27
2019-05-22T21:12:28.650Z,6.17
2019-05-22T21:15:01.429Z,4.37
2019-05-22T21:17:32.808Z,5.47
2019-05-22T21:20:04.772Z,6.23
2019-05-22T21:22:35.844Z,6.07
2019-05-22T21:25:08.190Z,5.50
2019-05-22T21:27:39.546Z,6.07
2019-05-22T21:30:12.927Z,7.17
2019-05-22T21:32:44.311Z,5.53
2019-05-22T21:35:17.392Z,5.93
2019-05-22T21:37:48.675Z,5.47
2019-05-22T21:40:25.720Z,6.57
2019-05-22T21:43:00.394Z,5.47
2019-05-22T21:45:31.721Z,5.50
2019-05-22T21:48:04.094Z,5.67
2019-05-22T21:50:34.867Z,6.10
2019-05-22T21:53:09.717Z,4.63
2019-05-22T21:55:45.433Z,4.20
2019-05-22T21:58:16.312Z,7.20
2019-05-22T22:01:26.774Z,5.70
2019-05-22T22:04:03.399Z,4.63
2019-05-22T22:06:37.541Z,5.60
2019-05-22T22:09:09.141Z,5.60
2019-05-22T22:11:42.745Z,5.93
2019-05-22T22:14:14.005Z,4.43
2019-05-22T22:16:45.464Z,6.03
2019-05-22T22:19:18.440Z,3.67
2019-05-22T22:21:49.698Z,4.70
2019-05-22T22:24:21.116Z,4.27
2019-05-22T22:26:52.073Z,3.93
2019-05-22T22:29:23.030Z,5.73
2019-05-22T22:31:55.012Z,4.27
2019-05-22T22:34:38.437Z,4.03
2019-05-22T22:37:11.447Z,4.57
2019-05-22T22:39:50.465Z,6.73
2019-05-22T22:42:24.940Z,5.43
2019-05-22T22:44:57.867Z,5.03
2019-05-22T22:47:44.146Z,3.90
2019-05-22T22:50:17.060Z,5.30
2019-05-22T22:52:48.727Z,4.13
2019-05-22T22:55:21.057Z,5.83
2019-05-22T22:57:52.349Z,4.77
2019-05-22T23:00:29.846Z,4.13
2019-05-22T23:03:01.627Z,4.60
2019-05-22T23:05:34.564Z,4.40
2019-05-22T23:08:05.704Z,4.80
2019-05-22T23:10:36.978Z,5.87
2019-05-22T23:13:14.445Z,3.67
2019-05-22T23:15:46.501Z,4.77
2019-05-22T23:18:32.789Z,4.83
2019-05-22T23:21:01.489Z,5.50
2019-05-22T23:23:30.453Z,5.63
2019-05-22T23:26:02.419Z,5.20
2019-05-22T23:28:35.069Z,4.67
2019-05-22T23:31:06.581Z,4.63
2019-05-22T23:33:39.657Z,4.73
2019-05-22T23:36:12.217Z,4.57
2019-05-22T23:38:43.445Z,3.93
2019-05-22T23:41:14.608Z,4.37
2019-05-22T23:43:46.336Z,4.10
2019-05-22T23:46:18.601Z,6.73
2019-05-22T23:48:54.350Z,4.37
2019-05-22T23:51:23.464Z,6.87
2019-05-22T23:53:56.090Z,4.93
2019-05-22T23:56:28.593Z,5.80
2019-05-22T23:58:59.387Z,6.63
